Airfield :
LOGIN :

Register | Disclaimer

   EN    FR    IT 

 










Legend :    VFR   Marginal VFR   IFR   Intensive IFR   Very Intensive IFR
Visi :
Ceiling :
>= 8 km
>= 3000ft
5 to 8 km
1000 to 3000 ft
1500m to 5 km
500 to 1000 ft
800 to 1500m
200 to 500 ft
< 800m
< 200 ft
Symbols :   Thunderstorms  Fog  Heavy snow  Heavy precipitations  Wind > 20 kt
SIGMETs :     Misc.  Thunderstorms  Icing  Turbulence  Mountain Waves  Volcanic Ashes






- Airport Elevation : 120 ft
- IATA code : MME


EGNV - Durham Tees valley

CURRENT METAR :
  • 081020Z 29007KT 9999 FEW030 M01/M05 Q1011

EXPIRED METARs :
  • 080950Z 27008KT 9999 SCT031 M01/M05 Q1011
  • 080920Z 28007KT 9999 FEW035 M02/M05 Q1011
  • 080850Z 27007KT 9999 FEW035 M03/M05 Q1011
  • 080820Z 25006KT 9999 FEW035 M03/M05 Q1012
  • 080750Z 29008KT CAVOK M01/M04 Q1012

TAF TAF EGNV
Valid from the 08 at 09:00 until the 08 at 18:00 UTC


080804Z 0809/0818 30008KT 9999 FEW025
TEMPO 0813/0818 3000 SHRASN -SHSN BKN006
PROB30
TEMPO 0813/0818 1400 SHSN BKN004
ATIS : +44 9012 018 111



MET'MAP, your aeronautical weather chart ! - Copyright ORBIFLY December 2007 - Disclaimer

ORBIFLY MET'MAP TEAM :

Programming & Development : Alexandra Zaïnal
Original concept : Baudouin d'Aumeries
Technical & hardware support : Manuel Goepfert
Assistance : Marc-Olivier Méhu




SOURCES & CREDITS :

   NOAA